Latest Weather Observations for Dennes Point

IDT60801

Issued at 9:02 am EST Saturday 27 August 2016 (issued every 30 minutes, with the page automatically refreshed every 10 minutes)

About weather observations | Map of weather stations | Latest weather observations for TAS | Other Formats
Station Details ID: 094255 Name: DENNES POINT Lat: -43.06 Lon: 147.36 Height: 5.67 m
Data from the previous 72 hours. | See also: Recent months at Dennes Point
Date/Time
EST
Temp
°C
App
Temp
°C
Dew
Point
°C
Rel
Hum
%
Delta-T
°C
Wind Press
QNH
hPa
Press
MSL
hPa
Rain since
9am
mm
Dir  Spd
km/h
Gust
km/h
Spd
kts
Gust
kts
27/09:00am 13.0 7.6 4.7 57 3.8 WNW 22 32 12 17 1010.3 1010.3 0.0
27/08:30am 12.4 7.0 4.6 59 3.6 WNW 22 35 12 19 1010.5 1010.5 0.0
27/08:00am 11.4 7.8 4.8 64 3.0 NNW 13 19 7 10 1010.8 1010.8 0.0
27/07:30am 11.3 8.3 4.3 62 3.1 NW 9 20 5 11 1010.7 1010.7 0.0
27/07:00am 11.1 7.5 4.8 65 2.9 NNW 13 17 7 9 1010.8 1010.8 0.0
27/06:30am 10.9 7.1 4.1 63 3.0 NW 13 20 7 11 1010.8 1010.8 0.0
27/06:00am 11.4 8.1 4.4 62 3.2 NW 11 32 6 17 1010.7 1010.7 0.0
27/05:30am 10.3 7.4 4.7 68 2.5 N 9 17 5 9 1010.8 1010.8 0.0
27/05:00am 11.3 6.8 4.1 61 3.2 WNW 17 33 9 18 1010.5 1010.5 0.0
27/04:30am 10.9 7.1 3.9 62 3.1 WNW 13 22 7 12 1010.6 1010.6 0.0
27/04:00am 11.0 6.9 4.2 63 3.0 NNW 15 19 8 10 1010.7 1010.7 0.0
27/03:30am 10.8 7.9 4.7 66 2.8 NNW 9 13 5 7 1011.1 1011.1 0.0
27/03:00am 10.8 7.8 4.0 63 3.0 NW 9 17 5 9 1011.6 1011.6 0.0
27/02:30am 11.1 4.4 3.9 61 3.2 W 28 39 15 21 1011.8 1011.8 0.0
27/02:00am 11.1 5.1 3.6 60 3.3 WNW 24 33 13 18 1011.3 1011.3 0.0
27/01:30am 11.4 6.2 3.7 59 3.4 WNW 20 30 11 16 1011.3 1011.3 0.0
27/01:00am 11.1 7.7 4.1 62 3.1 NNW 11 17 6 9 1011.2 1011.2 0.0
27/12:30am 11.3 8.6 3.8 60 3.3 NW 7 19 4 10 1011.5 1011.5 0.0
27/12:00am 11.3 6.8 4.3 62 3.1 NW 17 22 9 12 1011.5 1011.5 0.0
 
Date/Time
EST
Temp
°C
App
Temp
°C
Dew
Point
°C
Rel
Hum
%
Delta-T
°C
Wind Press
QNH
hPa
Press
MSL
hPa
Rain since
9am
mm
Dir  Spd
km/h
Gust
km/h
Spd
kts
Gust
kts
26/11:30pm 11.1 8.1 4.3 63 3.0 NW 9 19 5 10 1012.0 1012.0 0.0
26/11:00pm 11.5 6.1 4.3 61 3.2 WNW 22 33 12 18 1012.1 1012.1 0.0
26/10:30pm 11.3 6.5 4.7 64 3.0 WNW 19 28 10 15 1012.3 1012.3 0.0
26/10:00pm 11.2 6.2 4.7 64 2.9 W 20 30 11 16 1012.4 1012.4 0.0
26/09:30pm 11.7 6.3 4.7 62 3.2 W 22 33 12 18 1012.3 1012.3 0.0
26/09:00pm 11.1 6.3 4.6 64 2.9 WNW 19 30 10 16 1012.2 1012.2 0.0
26/08:30pm 11.7 6.0 4.7 62 3.2 WNW 24 35 13 19 1012.0 1012.0 0.0
26/08:00pm 11.8 5.4 5.0 63 3.1 WNW 28 37 15 20 1011.9 1011.9 0.0
26/07:30pm 12.0 5.6 5.0 62 3.2 WNW 28 41 15 22 1011.9 1011.9 0.0
26/07:00pm 12.1 6.8 5.0 62 3.3 WNW 22 39 12 21 1012.0 1012.0 0.0
26/06:30pm 12.0 6.0 5.2 63 3.1 W 26 43 14 23 1012.0 1012.0 0.0
26/06:00pm 12.3 6.6 5.0 61 3.4 W 24 35 13 19 1011.6 1011.6 0.0
26/05:30pm 11.9 7.0 4.9 62 3.2 WNW 20 35 11 19 1011.4 1011.4 0.0
26/05:00pm 12.7 7.1 5.4 61 3.4 W 24 41 13 22 1011.1 1011.1 0.0
26/04:30pm 12.5 8.0 5.9 64 3.1 WSW 19 26 10 14 1011.5 1011.5 0.0
26/04:00pm 13.0 8.3 5.2 59 3.6 WSW 19 24 10 13 1011.3 1011.3 0.0
26/03:30pm 13.9 9.0 5.3 56 4.0 W 20 32 11 17 1011.0 1011.0 0.0
26/03:00pm 13.8 8.2 5.4 57 3.9 W 24 37 13 20 1011.0 1011.0 0.0
26/02:30pm 13.5 7.5 5.4 58 3.8 W 26 41 14 22 1011.0 1011.0 0.0
26/02:00pm 13.7 6.6 5.6 58 3.8 W 32 43 17 23 1011.2 1011.2 0.0
26/01:36pm 13.7 7.3 5.1 56 4.0 W 28 48 15 26 1011.2 1011.2 0.0
26/01:30pm 14.0 8.9 5.9 58 3.8 W 22 32 12 17 1011.3 1011.3 0.0
26/01:00pm 13.3 6.4 4.7 56 4.0 W 30 43 16 23 1011.6 1011.6 0.0
26/12:46pm 13.5 7.0 4.9 56 4.0 W 28 46 15 25 1011.5 1011.5 0.0
26/12:30pm 13.6 7.3 5.5 58 3.8 W 28 37 15 20 1011.6 1011.6 0.0
26/12:00pm 12.9 5.2 5.3 60 3.5 W 35 46 19 25 1012.1 1012.1 0.0
26/11:30am 13.1 9.3 6.0 62 3.4 WNW 15 28 8 15 1012.4 1012.4 0.0
26/11:00am 12.2 8.6 4.9 61 3.3 W 13 22 7 12 1012.5 1012.5 0.0
26/10:30am 12.2 8.3 5.4 63 3.2 WNW 15 24 8 13 1012.6 1012.6 0.0
26/10:00am 11.5 7.1 4.7 63 3.1 W 17 22 9 12 1012.8 1012.8 0.0
26/09:30am 11.2 8.3 4.9 65 2.9 W 9 15 5 8 1012.9 1012.9 0.0
26/09:00am 9.2 7.5 4.2 71 2.2 N 2 6 1 3 1013.0 1013.0 1.2
26/08:30am 8.9 6.4 4.5 74 1.9 N 7 11 4 6 1013.1 1013.1 1.2
26/08:00am 8.1 5.1 3.9 75 1.8 NNW 9 15 5 8 1013.1 1013.1 1.2
26/07:30am 8.1 4.2 3.6 73 1.9 NNW 13 19 7 10 1013.4 1013.4 1.2
26/07:00am 7.8 5.3 3.5 74 1.8 N 6 9 3 5 1013.3 1013.3 1.2
26/06:30am 7.5 4.9 3.2 74 1.8 NNW 6 9 3 5 1013.0 1013.0 1.2
26/06:00am 7.2 4.9 2.7 73 1.9 NW 4 7 2 4 1013.0 1013.0 1.2
26/05:30am 6.5 3.7 1.8 72 1.9 WNW 6 7 3 4 1012.9 1012.9 1.2
26/05:00am 7.7 3.7 2.8 71 2.1 WNW 13 17 7 9 1012.7 1012.7 1.2
26/04:30am 6.8 3.4 1.7 70 2.1 WNW 9 13 5 7 1012.5 1012.5 1.2
26/04:00am 7.1 4.6 1.8 69 2.2 NW 4 7 2 4 1012.6 1012.6 1.2
26/03:30am 7.2 4.2 1.7 68 2.2 WNW 7 11 4 6 1012.6 1012.6 1.2
26/03:00am 7.8 4.9 2.7 70 2.1 NW 7 13 4 7 1012.5 1012.5 1.2
26/02:30am 7.0 4.9 1.9 70 2.1 WSW 2 6 1 3 1012.8 1012.8 1.2
26/02:00am 6.6 3.7 1.3 69 2.1 WSW 6 7 3 4 1013.1 1013.1 1.2
26/01:30am 7.8 4.9 2.7 70 2.1 NNW 7 19 4 10 1013.3 1013.3 1.2
26/01:00am 8.1 4.4 2.6 68 2.3 NW 11 17 6 9 1013.4 1013.4 1.2
26/12:30am 8.2 4.5 2.4 67 2.4 NW 11 15 6 8 1013.4 1013.4 1.2
26/12:00am 7.9 5.0 2.8 70 2.1 NNW 7 11 4 6 1013.6 1013.6 1.2
 
Date/Time
EST
Temp
°C
App
Temp
°C
Dew
Point
°C
Rel
Hum
%
Delta-T
°C
Wind Press
QNH
hPa
Press
MSL
hPa
Rain since
9am
mm
Dir  Spd
km/h
Gust
km/h
Spd
kts
Gust
kts
25/11:30pm 7.7 4.7 2.2 68 2.3 WNW 7 13 4 7 1013.5 1013.5 1.2
25/11:00pm 7.5 4.8 2.4 70 2.1 WNW 6 13 3 7 1013.6 1013.6 1.2
25/10:30pm 6.9 3.8 1.6 69 2.1 NW 7 13 4 7 1013.7 1013.7 1.2
25/10:00pm 7.6 4.9 2.5 70 2.1 NW 6 9 3 5 1013.6 1013.6 1.0
25/09:30pm 7.5 3.5 2.8 72 2.0 WSW 13 22 7 12 1013.7 1013.7 1.0
25/09:00pm 7.6 2.9 2.9 72 2.0 W 17 20 9 11 1013.9 1013.9 0.8
25/08:30pm 7.3 4.1 3.0 74 1.8 WNW 9 11 5 6 1013.9 1013.9 0.6
25/08:00pm 7.6 3.2 2.9 72 2.0 WSW 15 19 8 10 1013.6 1013.6 0.6
25/07:30pm 7.9 3.3 3.6 74 1.8 WSW 17 20 9 11 1013.4 1013.4 0.6
25/07:00pm 8.1 4.0 4.3 77 1.7 W 15 19 8 10 1013.5 1013.5 0.6
25/06:30pm 7.5 5.0 3.6 76 1.7 SW 6 9 3 5 1013.2 1013.2 0.4
25/06:00pm 8.2 5.2 3.9 74 1.9 SW 9 15 5 8 1012.7 1012.7 0.2
25/05:30pm 9.2 5.9 4.4 72 2.1 SW 11 22 6 12 1012.4 1012.4 0.0
25/05:00pm 9.3 6.3 4.1 70 2.3 SW 9 13 5 7 1012.1 1012.1 0.0
25/04:30pm 10.1 6.9 5.3 72 2.2 SW 11 15 6 8 1011.9 1011.9 0.0
25/04:00pm 9.8 7.1 5.8 76 1.8 SW 9 17 5 9 1011.8 1011.8 0.0
25/03:30pm 9.8 6.8 6.0 77 1.7 WSW 11 13 6 7 1011.8 1011.8 0.0
25/03:00pm 9.0 5.5 5.6 79 1.5 WSW 13 15 7 8 1011.8 1011.8 0.0
25/02:30pm 9.1 5.2 5.5 78 1.6 SW 15 22 8 12 1011.7 1011.7 0.0
25/02:00pm 9.6 6.6 6.0 78 1.7 SW 11 15 6 8 1011.5 1011.5 0.0
25/01:30pm 9.4 6.3 5.6 77 1.7 SSW 11 20 6 11 1011.3 1011.3 0.0
25/01:00pm 9.9 4.7 5.5 74 2.0 SSW 22 33 12 18 1011.5 1011.5 0.0
25/12:30pm 10.6 6.0 5.6 71 2.3 SW 19 24 10 13 1011.4 1011.4 0.0
25/12:00pm 10.7 6.6 4.6 66 2.7 SW 15 19 8 10 1011.4 1011.4 0.0
25/11:30am 11.5 6.9 5.4 66 2.8 SW 19 26 10 14 1011.4 1011.4 0.0
25/11:00am 10.9 6.9 4.8 66 2.8 WSW 15 20 8 11 1011.5 1011.5 0.0
25/10:30am 10.4 6.0 5.0 69 2.4 WSW 17 22 9 12 1011.4 1011.4 0.0
25/10:00am 10.8 6.9 5.3 69 2.5 WSW 15 28 8 15 1011.3 1011.3 0.0
25/09:30am 9.6 5.5 4.4 70 2.3 WSW 15 19 8 10 1011.3 1011.3 0.0
25/09:00am 8.9 6.5 4.3 73 2.0 SSW 6 7 3 4 1011.4 1011.4 0.0
25/08:30am 7.9 4.8 3.6 74 1.8 WSW 9 13 5 7 1011.1 1011.1 0.0
25/08:00am 7.7 4.2 3.4 74 1.8 W 11 17 6 9 1010.9 1010.9 0.0
25/07:30am 7.4 3.1 3.1 74 1.8 WNW 15 20 8 11 1010.7 1010.7 0.0
25/07:00am 7.2 3.2 3.1 75 1.7 W 13 17 7 9 1010.4 1010.4 0.0
25/06:30am 6.8 4.0 2.9 76 1.6 WSW 7 13 4 7 1010.1 1010.1 0.0
25/06:00am 6.6 2.9 2.3 74 1.8 WSW 11 17 6 9 1009.8 1009.8 0.0
25/05:30am 7.0 2.2 2.7 74 1.8 W 17 22 9 12 1009.7 1009.7 0.0
25/05:00am 7.1 1.9 2.6 73 1.9 W 19 24 10 13 1009.5 1009.5 0.0
25/04:30am 7.0 2.6 2.5 73 1.9 W 15 19 8 10 1009.4 1009.4 0.0
25/04:00am 6.9 2.1 2.4 73 1.9 W 17 22 9 12 1009.4 1009.4 0.0
25/03:30am 6.8 1.9 2.3 73 1.8 W 17 20 9 11 1009.1 1009.1 0.0
25/03:00am 6.9 1.5 2.4 73 1.9 W 20 26 11 14 1009.2 1009.2 0.0
25/02:30am 6.8 2.7 2.3 73 1.8 W 13 17 7 9 1009.3 1009.3 0.0
25/02:00am 6.5 2.0 2.4 75 1.7 W 15 19 8 10 1009.4 1009.4 0.0
25/01:30am 6.2 2.4 1.9 74 1.7 W 11 13 6 7 1009.6 1009.6 0.0
25/01:00am 6.5 1.0 2.0 73 1.8 W 20 24 11 13 1009.6 1009.6 0.0
25/12:30am 6.8 1.9 2.1 72 1.9 W 17 20 9 11 1009.8 1009.8 0.0
25/12:00am 6.4 2.2 1.7 72 1.9 W 13 20 7 11 1010.0 1010.0 0.0
 
Date/Time
EST
Temp
°C
App
Temp
°C
Dew
Point
°C
Rel
Hum
%
Delta-T
°C
Wind Press
QNH
hPa
Press
MSL
hPa
Rain since
9am
mm
Dir  Spd
km/h
Gust
km/h
Spd
kts
Gust
kts
24/11:30pm 6.4 3.0 1.7 72 1.9 W 9 11 5 6 1010.0 1010.0 0.0
24/11:00pm 6.7 3.3 2.0 72 1.9 WNW 9 11 5 6 1010.2 1010.2 0.0
24/10:30pm 6.9 2.8 2.0 71 2.0 W 13 17 7 9 1010.4 1010.4 0.0
24/10:00pm 6.8 3.3 1.3 68 2.2 W 9 13 5 7 1010.5 1010.5 0.0
24/09:30pm 7.4 4.4 1.9 68 2.2 WNW 7 11 4 6 1010.6 1010.6 0.0
24/09:00pm 7.4 3.2 1.9 68 2.3 W 13 17 7 9 1010.6 1010.6 0.0
24/08:30pm 7.6 3.5 2.1 68 2.3 W 13 22 7 12 1010.7 1010.7 0.0
24/08:00pm 7.7 3.2 2.2 68 2.3 WSW 15 24 8 13 1010.6 1010.6 0.0
24/07:30pm 8.0 3.1 2.0 66 2.5 SW 17 20 9 11 1010.5 1010.5 0.0
24/07:00pm 8.2 2.8 2.4 67 2.4 WSW 20 30 11 16 1010.6 1010.6 0.0
24/06:30pm 8.3 3.1 2.3 66 2.5 WSW 19 24 10 13 1010.5 1010.5 0.0
24/06:00pm 8.7 2.5 2.3 64 2.7 W 24 28 13 15 1010.3 1010.3 0.0
24/05:30pm 9.0 2.4 2.3 63 2.8 W 26 32 14 17 1010.0 1010.0 0.0
24/05:00pm 9.8 3.3 2.4 60 3.1 WSW 26 33 14 18 1010.0 1010.0 0.0
24/04:30pm 10.8 5.5 2.9 58 3.4 W 20 28 11 15 1009.7 1009.7 0.0
24/04:00pm 10.8 5.6 2.6 57 3.5 WSW 19 24 10 13 1009.7 1009.7 0.0
24/03:30pm 11.0 7.4 3.1 58 3.4 WSW 11 17 6 9 1010.0 1010.0 0.0
24/03:00pm 11.1 6.8 3.4 59 3.4 SW 15 20 8 11 1010.1 1010.1 0.0
24/02:30pm 10.5 4.5 3.1 60 3.2 WSW 24 33 13 18 1010.0 1010.0 0.0
24/02:00pm 11.2 6.2 4.7 64 2.9 WSW 20 30 11 16 1010.2 1010.2 0.0
24/01:30pm 9.8 4.5 4.8 71 2.2 WSW 22 32 12 17 1010.5 1010.5 0.0
24/01:00pm 11.2 6.0 3.5 59 3.4 WSW 20 30 11 16 1010.6 1010.6 0.0
24/12:30pm 10.6 6.7 3.4 61 3.1 WSW 13 17 7 9 1010.9 1010.9 0.0
24/12:00pm 10.7 6.4 3.0 59 3.3 WSW 15 20 8 11 1011.3 1011.3 0.0
24/11:30am 11.0 7.2 3.8 61 3.2 SW 13 17 7 9 1011.8 1011.8 0.0
24/11:00am 10.1 6.1 2.9 61 3.1 W 13 19 7 10 1012.1 1012.1 0.0
24/10:30am 10.7 6.5 4.0 63 3.0 WSW 15 19 8 10 1012.3 1012.3 0.0
24/10:00am 9.9 5.6 3.4 64 2.8 W 15 19 8 10 1012.6 1012.6 0.0
24/09:30am 9.9 6.2 4.3 68 2.5 WSW 13 17 7 9 1012.8 1012.8 0.0

Other Formats:

Comma delimited format used in spreadsheet applications
http://www.bom.gov.au/fwo/IDT60801/IDT60801.94988.axf

JavaScript Object Notation format (JSON) in row-major order
http://www.bom.gov.au/fwo/IDT60801/IDT60801.94988.json